sensor_id;sensor_type;location;lat;lon;timestamp;P1;durP1;ratioP1;P2;durP2;ratioP2
70729;SDS011;58315;53.336;55.932;2023-06-22T16:20:18;10.95;;;3.67;;
70729;SDS011;58315;53.336;55.932;2023-06-22T16:22:47;7.45;;;3.33;;
70729;SDS011;58315;53.336;55.932;2023-06-22T16:25:13;21.10;;;10.25;;
70729;SDS011;58315;53.336;55.932;2023-06-22T16:27:39;10.57;;;4.50;;
70729;SDS011;58315;53.336;55.932;2023-06-22T16:30:06;22.77;;;11.20;;
70729;SDS011;58315;53.336;55.932;2023-06-22T16:32:33;28.85;;;15.95;;
70729;SDS011;58315;53.336;55.932;2023-06-22T16:34:59;55.30;;;47.75;;
70729;SDS011;58315;53.336;55.932;2023-06-22T16:37:25;82.55;;;61.72;;
70729;SDS011;58315;53.336;55.932;2023-06-22T16:39:51;94.65;;;65.68;;
70729;SDS011;58315;53.336;55.932;2023-06-22T16:42:17;113.25;;;74.43;;
70729;SDS011;58315;53.336;55.932;2023-06-22T16:44:43;148.57;;;91.90;;
70729;SDS011;58315;53.336;55.932;2023-06-22T16:47:09;223.73;;;117.40;;
70729;SDS011;58315;53.336;55.932;2023-06-22T16:49:35;166.27;;;96.03;;
70729;SDS011;58315;53.336;55.932;2023-06-22T16:58:59;11.65;;;6.40;;
70729;SDS011;58315;53.336;55.932;2023-06-22T17:01:25;9.32;;;3.40;;
70729;SDS011;58315;53.336;55.932;2023-06-22T17:04:01;5.38;;;2.47;;
70729;SDS011;58315;53.336;55.932;2023-06-22T17:06:32;8.93;;;3.85;;
70729;SDS011;58315;53.336;55.932;2023-06-22T17:09:00;9.68;;;2.80;;
70729;SDS011;58315;53.336;55.932;2023-06-22T17:11:29;17.25;;;8.35;;
70729;SDS011;58315;53.336;55.932;2023-06-22T17:13:58;11.32;;;2.88;;
70729;SDS011;58315;53.336;55.932;2023-06-22T17:16:25;4.88;;;2.58;;
70729;SDS011;58315;53.336;55.932;2023-06-22T17:18:53;6.63;;;2.70;;
70729;SDS011;58315;53.336;55.932;2023-06-22T17:21:22;12.10;;;3.10;;
70729;SDS011;58315;53.336;55.932;2023-06-22T17:23:50;9.68;;;3.15;;
70729;SDS011;58315;53.336;55.932;2023-06-22T17:26:16;6.65;;;2.90;;
70729;SDS011;58315;53.336;55.932;2023-06-22T17:28:46;17.40;;;2.83;;
70729;SDS011;58315;53.336;55.932;2023-06-22T17:31:38;10.27;;;2.38;;
70729;SDS011;58315;53.336;55.932;2023-06-22T17:34:13;5.18;;;2.33;;
70729;SDS011;58315;53.336;55.932;2023-06-22T17:36:43;7.82;;;2.33;;
70729;SDS011;58315;53.336;55.932;2023-06-22T17:39:10;7.70;;;2.80;;
70729;SDS011;58315;53.336;55.932;2023-06-22T17:41:37;14.32;;;2.65;;
70729;SDS011;58315;53.336;55.932;2023-06-22T17:44:04;4.03;;;2.15;;
70729;SDS011;58315;53.336;55.932;2023-06-22T17:46:35;4.43;;;2.40;;
70729;SDS011;58315;53.336;55.932;2023-06-22T17:49:04;8.40;;;2.72;;
70729;SDS011;58315;53.336;55.932;2023-06-22T17:51:32;7.68;;;3.10;;
70729;SDS011;58315;53.336;55.932;2023-06-22T17:53:59;12.00;;;2.67;;
70729;SDS011;58315;53.336;55.932;2023-06-22T17:56:25;3.88;;;2.20;;
70729;SDS011;58315;53.336;55.932;2023-06-22T17:58:54;4.80;;;2.40;;
70729;SDS011;58315;53.336;55.932;2023-06-22T18:01:31;7.05;;;1.92;;
70729;SDS011;58315;53.336;55.932;2023-06-22T18:06:39;4.95;;;1.67;;
70729;SDS011;58315;53.336;55.932;2023-06-22T18:09:10;6.78;;;1.98;;
70729;SDS011;58315;53.336;55.932;2023-06-22T18:11:45;6.45;;;2.50;;
70729;SDS011;58315;53.336;55.932;2023-06-22T18:14:15;4.45;;;2.35;;
70729;SDS011;58315;53.336;55.932;2023-06-22T18:16:45;4.72;;;1.80;;
70729;SDS011;58315;53.336;55.932;2023-06-22T18:19:14;17.45;;;2.75;;
70729;SDS011;58315;53.336;55.932;2023-06-22T18:21:41;3.95;;;2.10;;
70729;SDS011;58315;53.336;55.932;2023-06-22T18:24:07;5.93;;;2.22;;
70729;SDS011;58315;53.336;55.932;2023-06-22T18:26:34;12.38;;;2.20;;
70729;SDS011;58315;53.336;55.932;2023-06-22T18:29:03;6.55;;;2.50;;
70729;SDS011;58315;53.336;55.932;2023-06-22T18:31:29;4.70;;;2.28;;
70729;SDS011;58315;53.336;55.932;2023-06-22T18:33:56;3.40;;;1.90;;
70729;SDS011;58315;53.336;55.932;2023-06-22T18:36:31;6.95;;;2.30;;
70729;SDS011;58315;53.336;55.932;2023-06-22T18:39:03;3.70;;;1.90;;
70729;SDS011;58315;53.336;55.932;2023-06-22T18:44:10;11.77;;;1.80;;
70729;SDS011;58315;53.336;55.932;2023-06-22T18:46:38;4.63;;;2.20;;
70729;SDS011;58315;53.336;55.932;2023-06-22T18:49:11;4.10;;;1.77;;
70729;SDS011;58315;53.336;55.932;2023-06-22T19:02:15;3.85;;;2.17;;
70729;SDS011;58315;53.336;55.932;2023-06-22T19:10:23;8.07;;;2.10;;
70729;SDS011;58315;53.336;55.932;2023-06-22T19:15:41;4.47;;;2.20;;
70729;SDS011;58315;53.336;55.932;2023-06-22T19:20:47;6.10;;;2.30;;
70729;SDS011;58315;53.336;55.932;2023-06-22T19:25:54;10.73;;;2.45;;
70729;SDS011;58315;53.336;55.932;2023-06-22T19:28:24;5.35;;;2.40;;
70729;SDS011;58315;53.336;55.932;2023-06-22T19:30:53;6.43;;;2.78;;
70729;SDS011;58315;53.336;55.932;2023-06-22T19:33:20;7.35;;;2.33;;
70729;SDS011;58315;53.336;55.932;2023-06-22T19:35:48;7.13;;;1.95;;
70729;SDS011;58315;53.336;55.932;2023-06-22T19:38:15;5.63;;;2.40;;
70729;SDS011;58315;53.336;55.932;2023-06-22T19:40:42;5.88;;;2.15;;
70729;SDS011;58315;53.336;55.932;2023-06-22T19:43:08;12.38;;;2.28;;
70729;SDS011;58315;53.336;55.932;2023-06-22T19:45:38;9.45;;;2.35;;
70729;SDS011;58315;53.336;55.932;2023-06-22T19:48:09;6.55;;;2.10;;
70729;SDS011;58315;53.336;55.932;2023-06-22T19:50:36;4.07;;;1.85;;
70729;SDS011;58315;53.336;55.932;2023-06-22T19:53:12;5.97;;;1.90;;
70729;SDS011;58315;53.336;55.932;2023-06-22T19:55:43;4.13;;;1.85;;
70729;SDS011;58315;53.336;55.932;2023-06-22T19:58:15;4.05;;;2.00;;
70729;SDS011;58315;53.336;55.932;2023-06-22T20:00:43;4.85;;;1.60;;
70729;SDS011;58315;53.336;55.932;2023-06-22T20:03:10;7.55;;;2.65;;
70729;SDS011;58315;53.336;55.932;2023-06-22T20:05:44;7.40;;;2.17;;
70729;SDS011;58315;53.336;55.932;2023-06-22T20:08:15;4.97;;;1.70;;
70729;SDS011;58315;53.336;55.932;2023-06-22T20:10:42;10.27;;;1.73;;
70729;SDS011;58315;53.336;55.932;2023-06-22T20:13:12;4.15;;;1.80;;
70729;SDS011;58315;53.336;55.932;2023-06-22T20:15:48;5.18;;;2.10;;
70729;SDS011;58315;53.336;55.932;2023-06-22T20:18:15;4.45;;;1.88;;
70729;SDS011;58315;53.336;55.932;2023-06-22T20:20:42;4.35;;;1.75;;
70729;SDS011;58315;53.336;55.932;2023-06-22T20:23:10;4.07;;;1.83;;
70729;SDS011;58315;53.336;55.932;2023-06-22T20:25:39;4.45;;;1.88;;
70729;SDS011;58315;53.336;55.932;2023-06-22T20:28:12;6.60;;;1.80;;
70729;SDS011;58315;53.336;55.932;2023-06-22T20:30:41;3.38;;;1.92;;
70729;SDS011;58315;53.336;55.932;2023-06-22T20:33:28;4.65;;;1.95;;
70729;SDS011;58315;53.336;55.932;2023-06-22T20:35:54;8.15;;;1.80;;
70729;SDS011;58315;53.336;55.932;2023-06-22T20:38:20;6.65;;;1.92;;
70729;SDS011;58315;53.336;55.932;2023-06-22T20:40:49;3.88;;;1.88;;
70729;SDS011;58315;53.336;55.932;2023-06-22T20:43:15;7.20;;;2.08;;
70729;SDS011;58315;53.336;55.932;2023-06-22T20:45:41;2.88;;;1.55;;
70729;SDS011;58315;53.336;55.932;2023-06-22T20:48:08;4.30;;;1.50;;
70729;SDS011;58315;53.336;55.932;2023-06-22T20:50:35;7.20;;;1.80;;
70729;SDS011;58315;53.336;55.932;2023-06-22T20:53:02;5.82;;;1.70;;
70729;SDS011;58315;53.336;55.932;2023-06-22T20:55:29;4.03;;;1.67;;
70729;SDS011;58315;53.336;55.932;2023-06-22T20:58:05;5.68;;;2.13;;
70729;SDS011;58315;53.336;55.932;2023-06-22T21:00:33;2.88;;;1.63;;
70729;SDS011;58315;53.336;55.932;2023-06-22T21:03:01;6.43;;;1.77;;
70729;SDS011;58315;53.336;55.932;2023-06-22T21:05:28;5.82;;;2.42;;
70729;SDS011;58315;53.336;55.932;2023-06-22T21:07:54;3.75;;;1.55;;
70729;SDS011;58315;53.336;55.932;2023-06-22T21:10:20;3.92;;;2.03;;
70729;SDS011;58315;53.336;55.932;2023-06-22T21:12:50;3.50;;;1.60;;
70729;SDS011;58315;53.336;55.932;2023-06-22T21:15:17;3.42;;;1.92;;
70729;SDS011;58315;53.336;55.932;2023-06-22T21:17:45;4.22;;;1.73;;
70729;SDS011;58315;53.336;55.932;2023-06-22T21:20:13;4.65;;;2.15;;
70729;SDS011;58315;53.336;55.932;2023-06-22T21:22:39;3.78;;;1.50;;
70729;SDS011;58315;53.336;55.932;2023-06-22T21:25:08;8.57;;;2.13;;
70729;SDS011;58315;53.336;55.932;2023-06-22T21:27:37;4.07;;;1.90;;
70729;SDS011;58315;53.336;55.932;2023-06-22T21:30:05;4.28;;;1.55;;
70729;SDS011;58315;53.336;55.932;2023-06-22T21:32:35;3.97;;;1.60;;
70729;SDS011;58315;53.336;55.932;2023-06-22T21:35:02;3.42;;;1.65;;
70729;SDS011;58315;53.336;55.932;2023-06-22T21:37:32;4.70;;;1.42;;
70729;SDS011;58315;53.336;55.932;2023-06-22T21:39:58;5.22;;;1.60;;
70729;SDS011;58315;53.336;55.932;2023-06-22T21:42:24;3.17;;;1.48;;
70729;SDS011;58315;53.336;55.932;2023-06-22T21:44:53;4.05;;;1.77;;
70729;SDS011;58315;53.336;55.932;2023-06-22T21:47:21;4.63;;;2.17;;
70729;SDS011;58315;53.336;55.932;2023-06-22T21:49:48;4.85;;;2.22;;
70729;SDS011;58315;53.336;55.932;2023-06-22T21:52:15;3.85;;;1.77;;
70729;SDS011;58315;53.336;55.932;2023-06-22T21:54:41;5.30;;;1.85;;
70729;SDS011;58315;53.336;55.932;2023-06-22T21:57:07;4.32;;;1.73;;
70729;SDS011;58315;53.336;55.932;2023-06-22T21:59:33;4.80;;;1.95;;
70729;SDS011;58315;53.336;55.932;2023-06-22T22:01:59;5.82;;;1.80;;
70729;SDS011;58315;53.336;55.932;2023-06-22T22:04:25;4.55;;;2.03;;
70729;SDS011;58315;53.336;55.932;2023-06-22T22:06:51;5.18;;;1.65;;
70729;SDS011;58315;53.336;55.932;2023-06-22T22:09:18;11.60;;;1.83;;
70729;SDS011;58315;53.336;55.932;2023-06-22T22:11:48;3.50;;;1.60;;
70729;SDS011;58315;53.336;55.932;2023-06-22T22:14:15;3.53;;;1.92;;
70729;SDS011;58315;53.336;55.932;2023-06-22T22:16:43;3.97;;;1.85;;
70729;SDS011;58315;53.336;55.932;2023-06-22T22:19:09;3.63;;;1.75;;
70729;SDS011;58315;53.336;55.932;2023-06-22T22:21:35;4.95;;;1.73;;
70729;SDS011;58315;53.336;55.932;2023-06-22T22:24:01;4.35;;;2.22;;
70729;SDS011;58315;53.336;55.932;2023-06-22T22:26:28;3.55;;;1.77;;
70729;SDS011;58315;53.336;55.932;2023-06-22T22:28:54;5.93;;;2.40;;
70729;SDS011;58315;53.336;55.932;2023-06-22T22:31:20;4.10;;;1.83;;
70729;SDS011;58315;53.336;55.932;2023-06-22T22:33:46;8.48;;;1.88;;
70729;SDS011;58315;53.336;55.932;2023-06-22T22:36:12;4.63;;;1.83;;
70729;SDS011;58315;53.336;55.932;2023-06-22T22:38:40;5.57;;;1.90;;
70729;SDS011;58315;53.336;55.932;2023-06-22T22:41:08;4.63;;;1.60;;
70729;SDS011;58315;53.336;55.932;2023-06-22T22:43:36;4.43;;;1.70;;
70729;SDS011;58315;53.336;55.932;2023-06-22T22:46:03;4.65;;;1.63;;
70729;SDS011;58315;53.336;55.932;2023-06-22T22:48:29;6.13;;;1.80;;
70729;SDS011;58315;53.336;55.932;2023-06-22T22:51:00;3.88;;;1.77;;
70729;SDS011;58315;53.336;55.932;2023-06-22T22:53:30;3.53;;;1.52;;
70729;SDS011;58315;53.336;55.932;2023-06-22T22:55:56;8.07;;;2.30;;
70729;SDS011;58315;53.336;55.932;2023-06-22T22:58:23;6.00;;;1.80;;
70729;SDS011;58315;53.336;55.932;2023-06-22T23:00:49;3.58;;;1.50;;
70729;SDS011;58315;53.336;55.932;2023-06-22T23:03:15;4.50;;;1.67;;
70729;SDS011;58315;53.336;55.932;2023-06-22T23:05:42;2.55;;;1.42;;
70729;SDS011;58315;53.336;55.932;2023-06-22T23:08:08;4.47;;;1.60;;
70729;SDS011;58315;53.336;55.932;2023-06-22T23:10:34;4.25;;;1.70;;
70729;SDS011;58315;53.336;55.932;2023-06-22T23:13:00;3.65;;;2.03;;
70729;SDS011;58315;53.336;55.932;2023-06-22T23:15:26;3.55;;;1.60;;
70729;SDS011;58315;53.336;55.932;2023-06-22T23:17:53;6.72;;;1.73;;
70729;SDS011;58315;53.336;55.932;2023-06-22T23:20:19;6.15;;;1.80;;
70729;SDS011;58315;53.336;55.932;2023-06-22T23:22:46;3.45;;;1.75;;
70729;SDS011;58315;53.336;55.932;2023-06-22T23:25:17;4.65;;;1.90;;
70729;SDS011;58315;53.336;55.932;2023-06-22T23:27:45;5.82;;;2.15;;
70729;SDS011;58315;53.336;55.932;2023-06-22T23:30:13;4.70;;;2.38;;
70729;SDS011;58315;53.336;55.932;2023-06-22T23:32:40;8.65;;;2.20;;
70729;SDS011;58315;53.336;55.932;2023-06-22T23:35:06;4.65;;;2.05;;
70729;SDS011;58315;53.336;55.932;2023-06-22T23:37:35;5.88;;;2.70;;
70729;SDS011;58315;53.336;55.932;2023-06-22T23:40:02;5.40;;;2.42;;
70729;SDS011;58315;53.336;55.932;2023-06-22T23:42:45;5.97;;;2.28;;
70729;SDS011;58315;53.336;55.932;2023-06-22T23:45:16;6.68;;;2.22;;
70729;SDS011;58315;53.336;55.932;2023-06-22T23:50:10;7.18;;;2.35;;
70729;SDS011;58315;53.336;55.932;2023-06-22T23:52:37;10.85;;;2.30;;
70729;SDS011;58315;53.336;55.932;2023-06-22T23:55:04;5.30;;;1.80;;
70729;SDS011;58315;53.336;55.932;2023-06-22T23:57:30;6.40;;;2.03;;
70729;SDS011;58315;53.336;55.932;2023-06-22T23:59:58;3.67;;;1.90;;
